Terminal Aerodrome Forecast
Issued by NWS

Home | Current Version | Previous Version | Text Only | Print | Product List | Glossary On
Versions: 1 2 3 4 5 6 7 8 9 10 11 12 13 14 15 16 17 18 19 20 21 22 23 24 25 26 27 28 29 30 31
000
FTUS43 KDTX 232349 CCA
TAFYIP
TAF COR
KYIP 232349Z 2400/2424 30005KT 3SM -TSRA SCT035 BKN050CB BKN100
     FM240030 30005KT P6SM SCT050 BKN100
     FM241000 30010KT P6SM OVC015
     FM241600 33010KT P6SM BKN035
     FM242000 36013KT P6SM SCT050=

USA.gov is the U.S. government's official web portal to all federal, state and local government web resources and services.